Time;durP1;ratioP1;P1;durP2;ratioP2;P2;SDS_P1;SDS_P2;PMS_P1;PMS_P2;Temp;Humidity;BMP_temperature;BMP_pressure;BME280_temperature;BME280_humidity;BME280_pressure;Samples;Min_cycle;Max_cycle;Signal;HPM_P1;HPM_P2
2022/09/02 04:16:14;;;;;;;0.70;0.70;;;;;;;19.73;88.67;100953.22;5071515;27;20394;-84
2022/09/02 04:18:39;;;;;;;1.55;1.38;;;;;;;20.48;84.32;100952.22;5066170;28;20028;-82
2022/09/02 04:21:05;;;;;;;1.63;1.52;;;;;;;20.91;81.59;100946.72;5042266;28;20504;-84
2022/09/02 04:23:31;;;;;;;1.00;0.90;;;;;;;21.15;80.02;100962.16;5072603;28;20029;-86
2022/09/02 04:25:56;;;;;;;1.92;1.05;;;;;;;21.29;78.65;100976.75;5079670;28;20028;-86
2022/09/02 04:28:22;;;;;;;1.48;0.88;;;;;;;21.39;78.82;100981.06;5066243;28;20039;-86
2022/09/02 04:30:48;;;;;;;1.02;0.93;;;;;;;21.38;77.81;100989.94;5062950;28;20063;-88
2022/09/02 04:33:15;;;;;;;1.60;1.33;;;;;;;21.53;76.96;100986.88;5034377;28;20499;-89
2022/09/02 04:35:41;;;;;;;1.85;0.73;;;;;;;21.56;76.74;100991.91;5067914;28;20032;-88
2022/09/02 04:38:07;;;;;;;0.90;0.75;;;;;;;21.64;76.37;100995.50;5033026;28;20115;-89
2022/09/02 04:40:32;;;;;;;1.05;0.95;;;;;;;21.76;76.10;100989.13;5022047;28;20064;-82
2022/09/02 04:42:59;;;;;;;2.30;1.77;;;;;;;21.95;75.67;100996.19;5010351;28;20026;-84
2022/09/02 04:45:25;;;;;;;2.28;1.55;;;;;;;21.91;75.52;100981.63;5026334;28;20052;-86
2022/09/02 04:47:50;;;;;;;1.30;1.20;;;;;;;22.05;75.00;100985.66;5009773;28;20034;-91
2022/09/02 04:50:16;;;;;;;1.20;1.00;;;;;;;21.85;75.52;100971.69;4995629;28;20033;-93
2022/09/02 04:52:41;;;;;;;1.30;1.08;;;;;;;22.18;74.78;100998.56;5027599;28;20048;-82
2022/09/02 04:55:08;;;;;;;0.60;0.55;;;;;;;22.00;75.42;100996.59;5026318;28;20029;-83
2022/09/02 04:57:33;;;;;;;1.17;1.08;;;;;;;22.16;75.78;100995.25;5008960;28;20036;-84
2022/09/02 05:00:00;;;;;;;0.38;0.38;;;;;;;21.93;76.16;100992.88;5006274;28;20033;-83
2022/09/02 05:02:26;;;;;;;0.80;0.47;;;;;;;21.85;76.98;100992.75;4992450;28;20026;-89
2022/09/02 05:04:51;;;;;;;0.73;0.73;;;;;;;21.91;76.69;100997.44;5006338;28;20045;-87
2022/09/02 05:07:17;;;;;;;1.65;1.05;;;;;;;21.83;76.33;100999.09;5017746;28;20025;-90
2022/09/02 05:09:43;;;;;;;0.60;0.60;;;;;;;21.86;76.08;100983.03;5020717;28;20037;-82
2022/09/02 05:12:09;;;;;;;0.32;0.32;;;;;;;22.01;75.75;100995.63;5005979;28;20053;-94
2022/09/02 05:14:35;;;;;;;0.22;0.22;;;;;;;21.84;76.77;100995.53;5027305;28;20045;-90
2022/09/02 05:17:01;;;;;;;0.30;0.30;;;;;;;21.84;76.59;101001.63;5010788;28;20029;-91
2022/09/02 05:19:26;;;;;;;0.52;0.52;;;;;;;21.37;75.92;100996.16;5019982;28;20077;-87
2022/09/02 05:21:54;;;;;;;0.20;0.20;;;;;;;21.07;77.19;101001.47;5007641;28;20026;-85
2022/09/02 05:24:19;;;;;;;0.40;0.40;;;;;;;21.10;76.28;101003.81;5020281;28;20117;-93
2022/09/02 05:26:45;;;;;;;0.35;0.35;;;;;;;20.92;77.37;101003.59;4999665;28;20112;-85
2022/09/02 05:29:11;;;;;;;0.20;0.20;;;;;;;20.91;77.71;101018.56;5010078;28;20080;-86
2022/09/02 05:31:37;;;;;;;0.35;0.30;;;;;;;20.60;78.21;101014.25;4994347;28;20044;-95
2022/09/02 05:34:03;;;;;;;0.40;0.40;;;;;;;20.74;78.59;101015.69;4994554;28;20049;-88
2022/09/02 05:36:30;;;;;;;0.20;0.20;;;;;;;20.84;79.09;101011.31;5010168;28;20037;-88
2022/09/02 05:38:55;;;;;;;0.30;0.30;;;;;;;20.68;78.00;101008.34;4994953;28;20034;-85
2022/09/02 05:41:22;;;;;;;0.38;0.38;;;;;;;20.81;77.29;101011.59;4997969;28;20104;-82
2022/09/02 05:43:48;;;;;;;0.30;0.30;;;;;;;20.93;76.92;101021.03;4991466;28;20049;-86
2022/09/02 05:46:16;;;;;;;1.27;0.95;;;;;;;20.77;77.04;101013.66;4994150;28;20042;-90
2022/09/02 05:51:26;;;;;;;1.98;1.75;;;;;;;20.49;79.86;101020.41;4997116;28;20072;-82
2022/09/02 05:53:55;;;;;;;0.65;0.65;;;;;;;20.68;77.74;101024.97;5009708;28;20478;-89
2022/09/02 05:56:21;;;;;;;0.32;0.32;;;;;;;20.50;77.97;101029.13;4993335;28;20080;-82
2022/09/02 05:58:46;;;;;;;0.43;0.43;;;;;;;20.39;77.62;101026.56;5009725;28;20027;-84
2022/09/02 06:01:13;;;;;;;1.17;0.90;;;;;;;20.36;79.01;101035.53;4993571;28;20033;-81
2022/09/02 06:03:38;;;;;;;0.70;0.65;;;;;;;20.31;77.87;101051.66;4977605;28;20040;-84
2022/09/02 06:06:04;;;;;;;0.47;0.40;;;;;;;20.36;78.52;101053.09;5006646;28;20109;-83
2022/09/02 06:08:30;;;;;;;1.13;0.93;;;;;;;20.55;77.09;101047.97;4977696;28;20030;-86
2022/09/02 06:10:55;;;;;;;0.30;0.30;;;;;;;20.68;76.40;101032.84;4994321;28;20956;-84
2022/09/02 06:13:21;;;;;;;0.30;0.30;;;;;;;20.91;76.99;101044.84;4993441;28;20034;-89
2022/09/02 06:15:48;;;;;;;0.50;0.38;;;;;;;20.91;75.92;101052.75;4994097;28;20053;-83
2022/09/02 06:18:13;;;;;;;0.30;0.30;;;;;;;21.06;75.07;101053.22;4992488;28;20405;-83
2022/09/02 06:20:43;;;;;;;0.70;0.68;;;;;;;21.26;74.48;101032.25;4994022;28;20091;-88
2022/09/02 06:23:08;;;;;;;1.08;0.55;;;;;;;21.19;74.64;101040.66;4977766;28;20495;-90
2022/09/02 06:25:38;;;;;;;0.40;0.40;;;;;;;21.36;74.42;101054.19;5010838;28;20064;-81
2022/09/02 06:28:03;;;;;;;0.68;0.68;;;;;;;21.29;73.64;101038.09;5005629;28;20141;-84
2022/09/02 06:30:29;;;;;;;0.82;0.82;;;;;;;21.51;72.74;101046.75;4977182;28;20034;-83
2022/09/02 06:32:54;;;;;;;0.60;0.60;;;;;;;21.46;73.01;101037.47;5010206;28;20392;-87
2022/09/02 06:35:21;;;;;;;0.17;0.17;;;;;;;21.67;70.79;101060.22;4994527;28;20045;-91
2022/09/02 06:37:46;;;;;;;0.32;0.30;;;;;;;21.58;72.28;101058.41;4992258;28;20025;-88
2022/09/02 06:40:13;;;;;;;0.20;0.20;;;;;;;21.50;72.61;101060.88;4989605;28;20478;-86
2022/09/02 06:42:39;;;;;;;0.68;0.68;;;;;;;21.43;70.33;101055.31;4994189;28;20037;-85
2022/09/02 06:45:05;;;;;;;0.88;0.60;;;;;;;21.27;71.54;101050.56;5010368;28;20091;-88
2022/09/02 06:47:31;;;;;;;0.98;0.90;;;;;;;21.17;71.69;101065.47;5009686;28;20026;-83
2022/09/02 06:49:57;;;;;;;0.60;0.60;;;;;;;20.87;72.84;101064.50;5007894;28;20062;-95
2022/09/02 06:52:23;;;;;;;0.30;0.30;;;;;;;20.69;71.80;101029.25;5008515;28;20069;-87
2022/09/02 06:54:49;;;;;;;1.17;1.08;;;;;;;20.75;73.86;101076.06;5026752;28;20564;-90
2022/09/02 06:57:15;;;;;;;0.98;0.88;;;;;;;20.75;73.41;101055.03;5011480;28;21545;-84
2022/09/02 06:59:41;;;;;;;2.35;2.15;;;;;;;20.79;73.20;101072.19;4993809;28;20053;-83
2022/09/02 07:02:06;;;;;;;1.30;1.08;;;;;;;20.68;73.36;101074.91;5010857;28;20092;-80
2022/09/02 07:07:16;;;;;;;0.93;0.90;;;;;;;20.60;73.59;101072.91;5023015;28;20045;-82
2022/09/02 07:09:41;;;;;;;0.32;0.32;;;;;;;20.46;73.40;101078.50;4989310;28;20025;-84
2022/09/02 07:12:07;;;;;;;0.68;0.68;;;;;;;20.59;73.77;101091.44;5013265;28;20427;-82
2022/09/02 07:14:38;;;;;;;1.42;1.08;;;;;;;20.60;73.18;101103.63;5025169;28;20057;-83
2022/09/02 07:17:03;;;;;;;0.90;0.90;;;;;;;20.41;74.70;101077.19;4993143;28;20021;-83
2022/09/02 07:19:29;;;;;;;0.77;0.77;;;;;;;20.73;72.98;101095.53;5026247;28;20479;-86
2022/09/02 07:21:54;;;;;;;0.20;0.20;;;;;;;20.67;73.39;101094.28;4992289;28;20121;-87
2022/09/02 07:24:20;;;;;;;0.35;0.35;;;;;;;20.56;73.24;101086.47;5010126;28;20033;-85
2022/09/02 07:26:47;;;;;;;0.43;0.43;;;;;;;20.74;72.23;101105.91;5008552;28;20076;-83
2022/09/02 07:29:13;;;;;;;0.55;0.55;;;;;;;20.65;74.35;101104.09;5008976;28;20117;-83
2022/09/02 07:31:43;;;;;;;0.63;0.63;;;;;;;20.73;73.46;101101.63;4989662;28;20109;-83
2022/09/02 07:34:08;;;;;;;0.73;0.60;;;;;;;20.82;74.02;101098.22;5001956;28;20033;-83
2022/09/02 07:36:35;;;;;;;0.45;0.45;;;;;;;21.02;73.60;101109.69;4992244;28;20022;-81
2022/09/02 07:39:01;;;;;;;0.30;0.30;;;;;;;21.01;71.80;101096.66;5028122;28;20041;-88
2022/09/02 07:41:27;;;;;;;0.60;0.60;;;;;;;20.77;73.66;101105.69;4984417;28;20042;-85
2022/09/02 07:43:57;;;;;;;1.48;0.88;;;;;;;20.91;72.22;101083.47;5010281;28;20537;-91
2022/09/02 07:46:22;;;;;;;0.50;0.50;;;;;;;21.27;71.34;101110.25;5012406;28;20033;-87
2022/09/02 07:48:51;;;;;;;0.55;0.55;;;;;;;21.10;71.58;101109.03;5011095;28;20026;-89
2022/09/02 07:51:17;;;;;;;0.30;0.30;;;;;;;20.93;71.84;101115.72;4983732;28;20033;-82
2022/09/02 07:53:43;;;;;;;1.77;0.57;;;;;;;20.83;71.90;101110.41;4994356;28;20034;-83
2022/09/02 07:56:12;;;;;;;0.30;0.30;;;;;;;20.82;73.56;101113.16;5010215;28;20035;-92
2022/09/02 07:58:39;;;;;;;1.08;1.00;;;;;;;20.71;73.47;101113.25;4986595;28;20108;-93
2022/09/02 08:01:05;;;;;;;0.45;0.45;;;;;;;20.60;73.89;101122.03;4990013;28;20030;-82
2022/09/02 08:03:31;;;;;;;0.40;0.40;;;;;;;20.64;73.21;101115.53;5008202;28;20816;-82
2022/09/02 08:05:56;;;;;;;0.80;0.55;;;;;;;20.80;73.73;101113.31;5004474;28;20033;-87
2022/09/02 08:08:22;;;;;;;0.38;0.38;;;;;;;20.86;73.55;101120.69;4977324;28;20033;-82
2022/09/02 08:10:49;;;;;;;1.75;1.65;;;;;;;20.98;72.64;101117.97;5010773;28;20036;-82
2022/09/02 08:13:14;;;;;;;3.10;1.77;;;;;;;20.68;72.28;101116.97;4974437;28;20054;-90
2022/09/02 08:15:40;;;;;;;0.40;0.40;;;;;;;20.53;71.77;101111.19;4971814;28;20431;-94
2022/09/02 08:18:06;;;;;;;1.13;1.02;;;;;;;20.81;73.23;101122.84;4994787;28;20052;-90
2022/09/02 08:20:32;;;;;;;0.40;0.40;;;;;;;20.80;72.67;101126.44;5010124;28;20498;-88
2022/09/02 08:22:57;;;;;;;0.55;0.50;;;;;;;21.20;71.92;101128.31;4989892;28;20026;-82
2022/09/02 08:25:23;;;;;;;0.93;0.70;;;;;;;21.10;72.42;101123.03;5007528;28;20571;-92
2022/09/02 08:27:49;;;;;;;1.33;1.23;;;;;;;21.27;71.39;101123.41;5021586;28;20041;-91
2022/09/02 08:30:14;;;;;;;0.43;0.43;;;;;;;21.16;71.19;101119.03;4993410;28;20582;-90
2022/09/02 08:32:40;;;;;;;0.30;0.30;;;;;;;21.16;69.41;101108.53;5015616;28;20108;-85
2022/09/02 08:35:06;;;;;;;0.70;0.63;;;;;;;21.09;71.14;101110.00;4988824;28;20078;-87
2022/09/02 08:37:32;;;;;;;0.73;0.73;;;;;;;21.28;71.05;101117.19;5001365;28;20046;-84
2022/09/02 08:39:57;;;;;;;0.60;0.60;;;;;;;20.99;71.35;101119.63;4991358;28;20105;-86
2022/09/02 08:42:39;;;;;;;0.52;0.52;;;;;;;20.98;72.77;101123.25;4972157;28;20054;-89
2022/09/02 08:45:11;;;;;;;0.35;0.35;;;;;;;20.77;72.75;101116.19;4976259;28;20029;-90
2022/09/02 08:47:37;;;;;;;1.17;0.82;;;;;;;20.72;71.92;101123.63;4992640;28;20030;-89
2022/09/02 08:50:07;;;;;;;0.60;0.60;;;;;;;20.56;72.64;101118.00;4975437;28;20084;-87
2022/09/02 08:53:01;;;;;;;0.68;0.63;;;;;;;20.50;73.10;101131.63;5006473;28;20113;-88
2022/09/02 08:55:42;;;;;;;0.70;0.70;;;;;;;20.61;72.44;101126.31;5009536;28;20125;-87
2022/09/02 08:58:07;;;;;;;2.00;0.73;;;;;;;20.37;72.86;101125.69;4992553;28;20114;-90
2022/09/02 09:00:36;;;;;;;0.40;0.40;;;;;;;20.55;72.80;101129.44;5007840;28;20038;-87
2022/09/02 09:03:24;;;;;;;0.40;0.40;;;;;;;20.66;73.96;101133.84;4979826;28;21092;-88
2022/09/02 09:05:55;;;;;;;0.70;0.70;;;;;;;20.64;73.21;101136.56;5005405;28;20091;-82
2022/09/02 09:09:02;;;;;;;1.33;0.93;;;;;;;20.59;72.56;101142.22;5008966;28;20042;-87
2022/09/02 09:11:40;;;;;;;1.15;1.05;;;;;;;20.36;72.93;101138.00;4970479;28;20342;-90
2022/09/02 09:14:08;;;;;;;0.50;0.50;;;;;;;20.23;73.19;101138.16;5011749;28;20112;-89
2022/09/02 09:16:58;;;;;;;0.25;0.25;;;;;;;20.42;72.93;101141.91;5012141;28;20132;-89
2022/09/02 09:19:38;;;;;;;1.75;1.20;;;;;;;20.25;73.76;101128.34;5076658;22;20081;-82
2022/09/02 09:22:04;;;;;;;1.08;0.80;;;;;;;20.30;72.63;101139.34;5011063;28;20033;-83
2022/09/02 09:24:48;;;;;;;1.70;1.05;;;;;;;20.33;72.72;101133.81;5007614;28;20057;-83
2022/09/02 09:27:19;;;;;;;0.40;0.40;;;;;;;20.12;73.22;101117.19;5011802;28;20022;-84
2022/09/02 09:29:44;;;;;;;1.00;0.93;;;;;;;20.30;72.90;101131.44;4994605;28;20557;-87
2022/09/02 09:32:35;;;;;;;0.52;0.52;;;;;;;20.31;73.06;101135.75;5014831;28;20509;-93
2022/09/02 09:35:11;;;;;;;0.80;0.80;;;;;;;20.29;71.79;101131.56;4996670;28;20045;-86
2022/09/02 09:37:37;;;;;;;1.33;1.23;;;;;;;20.28;73.57;101136.00;4978224;28;20606;-85
2022/09/02 09:40:24;;;;;;;0.50;0.50;;;;;;;20.41;73.61;101141.06;5013129;28;20506;-93
2022/09/02 09:43:04;;;;;;;1.38;0.85;;;;;;;20.28;72.93;101117.59;5011739;28;20050;-90
2022/09/02 09:45:34;;;;;;;0.38;0.35;;;;;;;20.73;72.02;101124.47;5012050;28;20108;-87
2022/09/02 09:48:17;;;;;;;0.77;0.75;;;;;;;20.88;70.87;101110.88;5012698;28;20073;-84
2022/09/02 09:50:46;;;;;;;0.70;0.40;;;;;;;20.62;70.42;101122.72;4994144;28;20084;-86
2022/09/02 09:53:25;;;;;;;0.75;0.75;;;;;;;20.56;72.20;101112.75;4999701;28;20025;-86
2022/09/02 09:55:53;;;;;;;0.93;0.93;;;;;;;20.58;72.43;101126.59;5012589;28;20046;-82
2022/09/02 09:58:19;;;;;;;0.40;0.40;;;;;;;20.61;71.74;101132.41;5010923;28;20028;-87
2022/09/02 10:00:44;;;;;;;0.32;0.32;;;;;;;20.55;71.89;101122.41;4994809;28;20026;-87
2022/09/02 10:03:18;;;;;;;0.30;0.30;;;;;;;20.32;72.45;101100.63;5010912;28;20033;-88
2022/09/02 10:05:43;;;;;;;0.63;0.52;;;;;;;20.44;72.34;101119.81;4994276;28;20041;-87
2022/09/02 10:08:15;;;;;;;0.60;0.60;;;;;;;20.45;72.54;101110.16;5009872;28;20029;-83
2022/09/02 10:10:41;;;;;;;0.70;0.63;;;;;;;20.78;71.50;101122.28;5012692;28;20103;-90
2022/09/02 10:13:20;;;;;;;0.65;0.65;;;;;;;20.93;71.22;101128.88;4978412;28;20033;-82
2022/09/02 10:15:59;;;;;;;0.60;0.60;;;;;;;21.09;71.08;101128.41;4994571;28;20028;-80
2022/09/02 10:18:30;;;;;;;1.38;1.25;;;;;;;21.20;69.97;101125.69;4991893;28;20034;-83
2022/09/02 10:21:02;;;;;;;0.90;0.70;;;;;;;21.10;70.75;101116.94;5011291;28;20064;-87
2022/09/02 10:23:44;;;;;;;1.10;1.00;;;;;;;20.99;70.50;101127.53;5010480;28;20041;-83
2022/09/02 10:26:28;;;;;;;0.55;0.50;;;;;;;20.81;71.82;101124.66;5013379;28;20042;-90
2022/09/02 10:29:31;;;;;;;0.40;0.40;;;;;;;21.08;71.30;101124.94;5011339;28;20036;-85
2022/09/02 10:32:08;;;;;;;;;;;;;;;20.89;70.93;101127.47;5012039;28;20092;-83
2022/09/02 10:34:41;;;;;;;0.70;0.68;;;;;;;20.79;71.91;101124.78;5011162;28;19963;-83
2022/09/02 10:37:16;;;;;;;0.75;0.75;;;;;;;21.05;70.60;101127.03;4994082;28;20038;-91
2022/09/02 10:40:03;;;;;;;2.00;1.02;;;;;;;21.33;69.44;101133.41;5011373;28;20105;-87
2022/09/02 10:42:42;;;;;;;0.50;0.50;;;;;;;21.02;69.57;101111.47;5010723;28;20033;-85
2022/09/02 10:45:30;;;;;;;0.63;0.63;;;;;;;21.08;70.50;101126.75;5010497;28;20514;-85
2022/09/02 10:48:17;;;;;;;0.55;0.55;;;;;;;21.19;70.05;101131.94;5003224;28;20052;-84
2022/09/02 10:50:48;;;;;;;1.02;0.98;;;;;;;21.27;69.84;101118.97;5010514;28;20030;-84
2022/09/02 10:53:32;;;;;;;0.55;0.43;;;;;;;21.34;69.59;101122.75;4993258;28;20022;-90
2022/09/02 10:56:33;;;;;;;0.20;0.20;;;;;;;21.65;68.55;101133.25;5009239;28;20026;-83
2022/09/02 10:59:04;;;;;;;0.75;0.75;;;;;;;21.68;69.02;101130.34;4967204;28;20502;-83
2022/09/02 11:01:53;;;;;;;0.68;0.47;;;;;;;21.81;68.00;101122.19;4967363;28;20056;-89
2022/09/02 11:04:41;;;;;;;0.63;0.55;;;;;;;21.74;67.72;101137.72;5010302;28;20120;-83
2022/09/02 11:07:09;;;;;;;0.73;0.73;;;;;;;21.90;68.08;101139.81;5025717;28;20029;-87
2022/09/02 11:09:42;;;;;;;0.40;0.40;;;;;;;22.09;67.54;101139.03;4993822;28;20022;-86
2022/09/02 11:12:15;;;;;;;0.30;0.30;;;;;;;22.09;67.71;101136.41;4994360;28;20084;-84
2022/09/02 11:14:59;;;;;;;0.40;0.40;;;;;;;22.29;66.12;101146.00;4992688;28;20115;-84
2022/09/02 11:17:39;;;;;;;0.57;0.57;;;;;;;22.00;66.45;101144.13;4991258;28;20041;-92
2022/09/02 11:20:13;;;;;;;0.52;0.52;;;;;;;21.74;67.67;101137.72;4990778;28;20603;-84
2022/09/02 11:22:59;;;;;;;0.95;0.77;;;;;;;21.74;67.72;101140.34;4982997;28;20076;-84
2022/09/02 11:25:37;;;;;;;0.65;0.63;;;;;;;22.11;66.89;101145.00;4995084;28;20030;-86
2022/09/02 11:28:21;;;;;;;0.65;0.60;;;;;;;22.08;66.39;101145.28;5008045;28;20184;-83
2022/09/02 11:30:50;;;;;;;0.65;0.60;;;;;;;21.85;66.67;101128.88;5008914;28;20029;-83
2022/09/02 11:33:27;;;;;;;0.63;0.60;;;;;;;21.98;66.91;101140.81;4976434;28;20487;-87
2022/09/02 11:35:53;;;;;;;0.30;0.30;;;;;;;22.01;66.96;101135.25;4993078;28;20499;-86
2022/09/02 11:38:32;;;;;;;0.52;0.38;;;;;;;22.21;66.44;101128.22;4991923;28;20048;-84
2022/09/02 11:41:27;;;;;;;0.45;0.45;;;;;;;22.21;66.32;101137.94;5009745;28;20069;-88
2022/09/02 11:44:14;;;;;;;0.68;0.68;;;;;;;22.11;66.20;101139.72;5008831;28;20038;-83
2022/09/02 11:47:15;;;;;;;0.57;0.47;;;;;;;22.12;66.95;101144.88;5009791;28;20034;-87
2022/09/02 11:50:18;;;;;;;1.08;0.95;;;;;;;22.30;66.28;101145.84;4969556;28;20034;-86
2022/09/02 11:53:00;;;;;;;0.40;0.40;;;;;;;22.21;66.37;101135.31;5010616;28;20040;-84
2022/09/02 11:55:46;;;;;;;0.40;0.40;;;;;;;22.09;66.65;101131.97;5009467;28;20037;-83
2022/09/02 11:58:41;;;;;;;0.57;0.57;;;;;;;22.18;65.85;101119.78;5009530;28;20061;-86
2022/09/02 12:01:34;;;;;;;0.40;0.40;;;;;;;22.58;64.31;101138.91;4978425;28;20026;-85
2022/09/02 12:04:06;;;;;;;0.30;0.30;;;;;;;22.66;64.35;101132.94;5010262;28;20030;-84
2022/09/02 12:06:32;;;;;;;0.38;0.38;;;;;;;22.64;64.19;101126.16;4993650;28;20045;-85
2022/09/02 12:09:01;;;;;;;1.02;0.98;;;;;;;22.77;64.52;101138.06;4992608;28;20033;-82
2022/09/02 12:11:40;;;;;;;0.90;0.50;;;;;;;22.71;64.83;101137.78;4993450;28;20026;-82
2022/09/02 12:14:10;;;;;;;0.47;0.47;;;;;;;22.18;66.45;101139.06;5010789;28;20034;-84
2022/09/02 12:16:41;;;;;;;0.47;0.47;;;;;;;21.80;68.14;101142.44;4999612;28;20050;-84
2022/09/02 12:19:24;;;;;;;0.85;0.85;;;;;;;21.67;68.40;101147.94;4993294;28;20050;-83
2022/09/02 12:22:14;;;;;;;0.57;0.57;;;;;;;21.50;69.82;101153.00;5010142;28;20026;-84
2022/09/02 12:24:52;;;;;;;0.32;0.32;;;;;;;22.13;68.83;101153.63;5009512;28;20049;-83
2022/09/02 12:27:22;;;;;;;1.42;1.13;;;;;;;22.53;66.84;101156.97;5008558;28;20028;-82
2022/09/02 12:29:47;;;;;;;0.47;0.40;;;;;;;22.11;67.88;101142.38;4991622;28;20033;-83
2022/09/02 12:32:42;;;;;;;0.50;0.50;;;;;;;21.79;69.19;101143.41;4991879;28;20414;-82
2022/09/02 12:35:12;;;;;;;0.38;0.38;;;;;;;21.77;70.04;101147.97;5008426;28;20032;-81
2022/09/02 12:37:55;;;;;;;0.40;0.30;;;;;;;21.83;69.33;101147.44;4995366;28;21607;-82
2022/09/02 12:40:32;;;;;;;0.63;0.45;;;;;;;21.81;69.82;101125.66;5004728;28;20025;-83
2022/09/02 12:42:59;;;;;;;1.15;0.85;;;;;;;21.86;69.22;101120.81;4996383;28;20506;-88
2022/09/02 12:45:26;;;;;;;0.43;0.40;;;;;;;22.13;68.82;101122.00;4995185;28;20034;-86
2022/09/02 12:48:10;;;;;;;0.82;0.73;;;;;;;22.36;69.45;101141.00;4994925;28;20038;-85
2022/09/02 12:50:57;;;;;;;0.65;0.65;;;;;;;21.95;70.20;101137.63;5013242;28;20037;-86
2022/09/02 12:53:33;;;;;;;0.47;0.47;;;;;;;21.62;70.92;101142.22;5013900;28;20034;-86
2022/09/02 12:56:02;;;;;;;1.05;0.95;;;;;;;21.38;72.31;101139.09;4980119;28;20033;-87
2022/09/02 12:58:34;;;;;;;1.23;1.13;;;;;;;21.31;72.70;101145.84;4994146;28;20096;-89
2022/09/02 13:01:00;;;;;;;1.52;0.98;;;;;;;21.09;73.61;101128.41;5012265;28;20349;-87
2022/09/02 13:03:56;;;;;;;0.93;0.80;;;;;;;21.10;75.61;101144.06;5013895;28;20064;-85
2022/09/02 13:06:39;;;;;;;1.52;1.42;;;;;;;21.06;74.53;101141.84;5013472;28;20041;-88
2022/09/02 13:09:09;;;;;;;;;;;;;;;20.98;74.98;101141.66;4996886;28;20032;-84
2022/09/02 13:11:59;;;;;;;0.52;0.52;;;;;;;21.08;74.93;101124.94;5012194;28;20306;-85
2022/09/02 13:14:46;;;;;;;1.00;0.60;;;;;;;21.00;75.96;101144.97;5012071;28;20054;-83
2022/09/02 13:17:21;;;;;;;0.40;0.40;;;;;;;20.74;76.84;101140.09;5012013;28;20034;-85
2022/09/02 13:20:05;;;;;;;1.00;0.90;;;;;;;21.10;74.68;101143.22;5013700;28;20491;-84
2022/09/02 13:23:05;;;;;;;1.08;1.05;;;;;;;20.94;75.65;101132.34;5013525;28;20068;-82
2022/09/02 13:25:55;;;;;;;0.30;0.30;;;;;;;20.87;75.45;101146.03;4994766;28;20022;-81
2022/09/02 13:28:58;;;;;;;0.70;0.60;;;;;;;21.20;75.08;101147.56;4976365;28;20050;-85
2022/09/02 13:31:24;;;;;;;;;;;;;;;21.28;75.28;101141.69;5012430;28;20028;-81
2022/09/02 13:34:01;;;;;;;0.88;0.80;;;;;;;21.12;74.87;101142.13;5011299;28;19996;-84
2022/09/02 13:36:34;;;;;;;1.52;1.42;;;;;;;21.02;76.91;101140.41;4996372;28;20030;-88
